Antwerp, New York
Current Conditions -  °F | °C
As of 7:33 AM on Thursday 18 Dec 2014 (Local Time) from KGTB Reporting Station
Light Snow Light Snow  
Wind Chill: -6°   Ceiling: 300
Heat Index: -1°   Visibility: 0.75mi
Dew Point: -2°   Wind: 10mph
Humidity: 93%   Direction: 270°W
Pressure: 29.92"   Gusts: NA
Location:  44.2°N, 75.61°W
Report Text: KGTB 181233Z AUTO 27009KT 3/4SM R21/P6000FT -SN BR BKN003 OVC008 M01/M02 A2992 RMK AO2 VIS 3/4V1 1/2
Loading
Personal Weather Stations






























Interactive Weather Map New forecast layout! Learn more

10-Day Weather Forecast

Advertisements
Track Severe Weather on mobile